Time;durP1;ratioP1;P1;durP2;ratioP2;P2;SDS_P1;SDS_P2;PMS_P1;PMS_P2;Temp;Humidity;BMP_temperature;BMP_pressure;BME280_temperature;BME280_humidity;BME280_pressure;Samples;Min_cycle;Max_cycle;Signal;HPM_P1;HPM_P2
2022/11/24 00:02:01;;;;;;;18.95;4.95;;;;;;;;;;4994884;28;20022;-77
2022/11/24 00:04:27;;;;;;;19.13;5.05;;;;;;;;;;4994720;28;20064;-77
2022/11/24 00:06:53;;;;;;;22.75;4.93;;;;;;;;;;4977744;28;20461;-77
2022/11/24 00:09:19;;;;;;;20.50;5.60;;;;;;;;;;4975555;28;20033;-77
2022/11/24 00:11:45;;;;;;;20.25;4.60;;;;;;;;;;4975408;28;20479;-77
2022/11/24 00:14:11;;;;;;;20.55;4.80;;;;;;;;;;4975167;28;20058;-77
2022/11/24 00:16:38;;;;;;;18.60;5.18;;;;;;;;;;4975579;28;20037;-77
2022/11/24 00:19:07;;;;;;;18.52;4.72;;;;;;;;;;4975278;28;20041;-77
2022/11/24 00:21:34;;;;;;;21.45;4.90;;;;;;;;;;4975486;28;20023;-77
2022/11/24 00:24:00;;;;;;;20.83;5.32;;;;;;;;;;4975298;28;20110;-77
2022/11/24 00:26:39;;;;;;;23.35;5.57;;;;;;;;;;4976571;28;20030;-77
2022/11/24 00:29:06;;;;;;;21.77;4.60;;;;;;;;;;4994691;28;20042;-77
2022/11/24 00:31:36;;;;;;;19.60;4.57;;;;;;;;;;4994885;28;20057;-77
2022/11/24 00:34:04;;;;;;;22.75;4.80;;;;;;;;;;4994683;28;20034;-77
2022/11/24 00:36:31;;;;;;;17.27;4.30;;;;;;;;;;4994129;28;20061;-77
2022/11/24 00:38:58;;;;;;;20.20;4.05;;;;;;;;;;4976529;28;20500;-77
2022/11/24 00:41:25;;;;;;;21.77;4.05;;;;;;;;;;4993986;28;20042;-77
2022/11/24 00:43:51;;;;;;;27.35;5.00;;;;;;;;;;4993903;28;20113;-77
2022/11/24 00:46:18;;;;;;;24.27;4.20;;;;;;;;;;4993846;28;20093;-77
2022/11/24 00:48:44;;;;;;;20.80;4.60;;;;;;;;;;4993962;28;20022;-77
2022/11/24 00:51:11;;;;;;;20.05;4.70;;;;;;;;;;4993990;28;20381;-77
2022/11/24 00:53:37;;;;;;;15.00;3.55;;;;;;;;;;4993993;28;20172;-77
2022/11/24 00:56:03;;;;;;;22.20;3.75;;;;;;;;;;4993760;28;20444;-77
2022/11/24 00:58:30;;;;;;;20.63;4.20;;;;;;;;;;4993895;28;20458;-77
2022/11/24 01:01:01;;;;;;;20.90;3.97;;;;;;;;;;4976360;28;20022;-77
2022/11/24 01:03:27;;;;;;;26.67;4.05;;;;;;;;;;4993867;28;20033;-77
2022/11/24 01:05:53;;;;;;;21.23;4.28;;;;;;;;;;4993579;28;20034;-77
2022/11/24 01:08:19;;;;;;;18.50;4.28;;;;;;;;;;4993892;28;20369;-77
2022/11/24 01:10:45;;;;;;;22.52;3.78;;;;;;;;;;4993669;28;20030;-77
2022/11/24 01:13:12;;;;;;;14.80;3.95;;;;;;;;;;4993732;28;20114;-77
2022/11/24 01:15:38;;;;;;;21.58;3.65;;;;;;;;;;4993693;28;20045;-77
2022/11/24 01:18:05;;;;;;;16.25;3.60;;;;;;;;;;4993863;28;20113;-77
2022/11/24 01:20:31;;;;;;;22.33;3.72;;;;;;;;;;4993314;28;20098;-77
2022/11/24 01:22:57;;;;;;;18.60;3.70;;;;;;;;;;4975275;28;20041;-77
2022/11/24 01:25:23;;;;;;;15.38;3.00;;;;;;;;;;4975644;28;20030;-77
2022/11/24 01:27:49;;;;;;;23.58;4.22;;;;;;;;;;4993542;28;20026;-77
2022/11/24 01:30:15;;;;;;;19.52;2.97;;;;;;;;;;4976516;28;20031;-77
2022/11/24 01:32:41;;;;;;;20.27;3.90;;;;;;;;;;4993831;28;20495;-77
2022/11/24 01:35:07;;;;;;;20.88;3.38;;;;;;;;;;4993612;28;20121;-77
2022/11/24 01:37:33;;;;;;;19.65;3.20;;;;;;;;;;4993583;28;20105;-77
2022/11/24 01:39:59;;;;;;;15.02;3.22;;;;;;;;;;4993347;28;20110;-77
2022/11/24 01:42:25;;;;;;;16.05;2.97;;;;;;;;;;4993380;28;20077;-77
2022/11/24 01:45:11;;;;;;;17.63;2.85;;;;;;;;;;4993518;28;20385;-77
2022/11/24 01:47:39;;;;;;;18.38;4.00;;;;;;;;;;4993119;28;20054;-77
2022/11/24 01:50:08;;;;;;;19.08;3.13;;;;;;;;;;4993561;28;20358;-77
2022/11/24 01:52:37;;;;;;;22.98;3.00;;;;;;;;;;4993431;28;20022;-77
2022/11/24 01:55:09;;;;;;;18.60;3.10;;;;;;;;;;4993302;28;20030;-77
2022/11/24 01:57:41;;;;;;;17.70;3.30;;;;;;;;;;4980765;28;20034;-77
2022/11/24 02:00:09;;;;;;;12.85;3.17;;;;;;;;;;4956530;28;20698;-77
2022/11/24 02:02:35;;;;;;;11.48;2.42;;;;;;;;;;4992503;28;20053;-77
2022/11/24 02:05:04;;;;;;;19.80;2.63;;;;;;;;;;4989503;28;20462;-77
2022/11/24 02:07:31;;;;;;;16.48;3.75;;;;;;;;;;4973637;28;20023;-78
2022/11/24 02:10:08;;;;;;;15.02;2.90;;;;;;;;;;4956568;28;20035;-77
2022/11/24 02:12:34;;;;;;;12.05;2.20;;;;;;;;;;4973970;28;20474;-77
2022/11/24 02:15:01;;;;;;;19.42;2.70;;;;;;;;;;4972550;28;20081;-77
2022/11/24 02:17:27;;;;;;;16.20;5.88;;;;;;;;;;4983006;28;20023;-77
2022/11/24 02:20:01;;;;;;;14.63;2.38;;;;;;;;;;4982993;28;20536;-77
2022/11/24 02:22:33;;;;;;;12.18;1.90;;;;;;;;;;4973913;28;20542;-77
2022/11/24 02:25:06;;;;;;;12.52;2.22;;;;;;;;;;4978330;28;20018;-77
2022/11/24 02:27:32;;;;;;;16.77;2.53;;;;;;;;;;4993469;28;20049;-77
2022/11/24 02:29:59;;;;;;;14.93;2.50;;;;;;;;;;4993363;28;20068;-77
2022/11/24 02:32:25;;;;;;;15.60;2.63;;;;;;;;;;4993432;28;20113;-77
2022/11/24 02:34:59;;;;;;;16.10;2.38;;;;;;;;;;4996613;28;20034;-77
2022/11/24 02:37:25;;;;;;;11.02;2.15;;;;;;;;;;4997031;28;20038;-77
2022/11/24 02:39:51;;;;;;;13.02;2.65;;;;;;;;;;4996570;28;20026;-77
2022/11/24 02:42:17;;;;;;;13.95;2.58;;;;;;;;;;4996650;28;20022;-77
2022/11/24 02:44:46;;;;;;;9.73;2.50;;;;;;;;;;4996662;28;20030;-77
2022/11/24 02:47:12;;;;;;;17.00;2.42;;;;;;;;;;4995981;28;20050;-77
2022/11/24 02:49:38;;;;;;;12.85;2.42;;;;;;;;;;4996580;28;20054;-77
2022/11/24 02:52:05;;;;;;;11.25;2.38;;;;;;;;;;4996428;28;20547;-77
2022/11/24 02:54:31;;;;;;;17.27;2.47;;;;;;;;;;4996382;28;20373;-77
2022/11/24 02:56:57;;;;;;;23.70;3.15;;;;;;;;;;4996418;28;20425;-77
2022/11/24 02:59:23;;;;;;;14.45;2.42;;;;;;;;;;4994737;28;20477;-77
2022/11/24 03:01:49;;;;;;;22.83;2.83;;;;;;;;;;4996371;28;20466;-77
2022/11/24 03:04:15;;;;;;;12.95;2.88;;;;;;;;;;4995925;28;20022;-77
2022/11/24 03:06:42;;;;;;;14.18;2.42;;;;;;;;;;4995999;28;20483;-77
2022/11/24 03:09:09;;;;;;;17.73;2.40;;;;;;;;;;4996125;28;20031;-77
2022/11/24 03:11:35;;;;;;;20.33;2.70;;;;;;;;;;4996585;28;20025;-78
2022/11/24 03:14:01;;;;;;;17.52;2.67;;;;;;;;;;4978053;28;20026;-77
2022/11/24 03:16:27;;;;;;;13.27;2.65;;;;;;;;;;4995716;28;20034;-77
2022/11/24 03:18:53;;;;;;;14.65;2.60;;;;;;;;;;4995763;28;20030;-77
2022/11/24 03:21:19;;;;;;;19.35;2.85;;;;;;;;;;4995807;28;20064;-77
2022/11/24 03:23:45;;;;;;;9.80;2.35;;;;;;;;;;4995459;28;20037;-77
2022/11/24 03:26:13;;;;;;;14.95;2.63;;;;;;;;;;4995532;28;20030;-77
2022/11/24 03:28:39;;;;;;;14.80;2.35;;;;;;;;;;4995367;28;20100;-77
2022/11/24 03:31:06;;;;;;;12.35;2.35;;;;;;;;;;4995464;28;20037;-77
2022/11/24 03:33:32;;;;;;;15.32;2.65;;;;;;;;;;4995637;28;20018;-77
2022/11/24 03:35:58;;;;;;;21.77;3.28;;;;;;;;;;4995298;28;20370;-77
2022/11/24 03:38:24;;;;;;;18.05;2.65;;;;;;;;;;4995508;28;20041;-77
2022/11/24 03:40:50;;;;;;;17.35;2.80;;;;;;;;;;4996510;28;20026;-77
2022/11/24 03:43:16;;;;;;;15.48;2.80;;;;;;;;;;4995735;28;20033;-77
2022/11/24 03:45:46;;;;;;;16.05;3.55;;;;;;;;;;4995020;28;20060;-77
2022/11/24 03:48:12;;;;;;;13.33;2.37;;;;;;;;;;4994713;28;20056;-77
2022/11/24 03:50:38;;;;;;;15.82;3.17;;;;;;;;;;4994971;28;20061;-77
2022/11/24 03:53:04;;;;;;;12.32;2.60;;;;;;;;;;4994717;28;20026;-77
2022/11/24 03:55:30;;;;;;;15.15;2.67;;;;;;;;;;4994883;28;20563;-77
2022/11/24 03:57:56;;;;;;;16.00;2.88;;;;;;;;;;4995121;28;20081;-76
2022/11/24 04:00:22;;;;;;;12.30;2.63;;;;;;;;;;4994651;28;20022;-76
2022/11/24 04:02:48;;;;;;;9.27;2.47;;;;;;;;;;4994615;28;20105;-76
2022/11/24 04:05:14;;;;;;;15.60;2.33;;;;;;;;;;4994879;28;20089;-76
2022/11/24 04:07:40;;;;;;;16.55;2.50;;;;;;;;;;4994532;28;20026;-76
2022/11/24 04:10:06;;;;;;;13.80;2.55;;;;;;;;;;4994400;28;20100;-76
2022/11/24 04:12:45;;;;;;;12.60;2.30;;;;;;;;;;4994489;28;20022;-76
2022/11/24 04:15:12;;;;;;;11.45;2.10;;;;;;;;;;4994391;28;20424;-76
2022/11/24 04:17:38;;;;;;;15.85;3.92;;;;;;;;;;4994408;28;20040;-76
2022/11/24 04:20:04;;;;;;;21.77;5.30;;;;;;;;;;4994379;28;20022;-76
2022/11/24 04:22:30;;;;;;;25.60;4.18;;;;;;;;;;4994304;28;20697;-76
2022/11/24 04:24:56;;;;;;;26.48;4.60;;;;;;;;;;4994465;28;20400;-77
2022/11/24 04:27:22;;;;;;;19.30;5.10;;;;;;;;;;4994289;28;20520;-76
2022/11/24 04:29:49;;;;;;;18.20;2.92;;;;;;;;;;4994158;28;20023;-76
2022/11/24 04:32:15;;;;;;;17.52;3.40;;;;;;;;;;4994376;28;20441;-76
2022/11/24 04:34:41;;;;;;;11.82;1.95;;;;;;;;;;4994247;28;20049;-76
2022/11/24 04:37:07;;;;;;;10.45;2.55;;;;;;;;;;4994077;28;20034;-76
2022/11/24 04:39:33;;;;;;;19.67;2.47;;;;;;;;;;4994061;28;20026;-76
2022/11/24 04:41:59;;;;;;;18.73;3.20;;;;;;;;;;4993884;28;20022;-76
2022/11/24 04:44:25;;;;;;;6.40;1.92;;;;;;;;;;4994230;28;20117;-76
2022/11/24 04:46:51;;;;;;;13.73;2.55;;;;;;;;;;4993858;28;20054;-76
2022/11/24 04:49:17;;;;;;;14.50;2.95;;;;;;;;;;4994162;28;20073;-76
2022/11/24 04:51:43;;;;;;;9.82;2.42;;;;;;;;;;4993719;28;20504;-76
2022/11/24 04:54:10;;;;;;;11.80;1.98;;;;;;;;;;4993765;28;20113;-76
2022/11/24 04:56:37;;;;;;;17.98;2.80;;;;;;;;;;4992854;28;20030;-76
2022/11/24 04:59:03;;;;;;;16.02;2.17;;;;;;;;;;4993944;28;20420;-76
2022/11/24 05:01:29;;;;;;;11.77;1.80;;;;;;;;;;4993645;28;20089;-76
2022/11/24 05:03:55;;;;;;;14.70;3.17;;;;;;;;;;4993640;28;20077;-76
2022/11/24 05:06:21;;;;;;;14.77;2.20;;;;;;;;;;4993534;28;20058;-76
2022/11/24 05:08:47;;;;;;;12.38;2.33;;;;;;;;;;4993481;28;20026;-76
2022/11/24 05:11:13;;;;;;;11.52;2.30;;;;;;;;;;4993412;28;20022;-76
2022/11/24 05:13:39;;;;;;;13.05;2.60;;;;;;;;;;4993446;28;20040;-76
2022/11/24 05:16:05;;;;;;;10.35;2.00;;;;;;;;;;4993271;28;20378;-76
2022/11/24 05:18:32;;;;;;;11.50;2.08;;;;;;;;;;4993403;28;20033;-76
2022/11/24 05:20:58;;;;;;;11.98;2.08;;;;;;;;;;4993459;28;20093;-76
2022/11/24 05:23:24;;;;;;;10.57;2.05;;;;;;;;;;5004710;28;20056;-76
2022/11/24 05:25:51;;;;;;;12.20;2.10;;;;;;;;;;5012783;28;20043;-76
2022/11/24 05:28:17;;;;;;;18.40;2.45;;;;;;;;;;5000268;28;20480;-76
2022/11/24 05:30:43;;;;;;;13.85;2.13;;;;;;;;;;4993002;28;20374;-76
2022/11/24 05:33:17;;;;;;;10.80;2.78;;;;;;;;;;4993112;28;20480;-76
2022/11/24 05:35:44;;;;;;;12.57;2.30;;;;;;;;;;4956078;28;20062;-76
2022/11/24 05:38:10;;;;;;;23.08;3.60;;;;;;;;;;4973651;28;20034;-76
2022/11/24 05:40:36;;;;;;;13.38;2.60;;;;;;;;;;4973599;28;20023;-76
2022/11/24 05:43:02;;;;;;;13.40;2.65;;;;;;;;;;4973667;28;20509;-76
2022/11/24 05:45:28;;;;;;;11.50;2.42;;;;;;;;;;4973546;28;20501;-76
2022/11/24 05:47:54;;;;;;;13.50;2.17;;;;;;;;;;4972668;28;20240;-76
2022/11/24 05:50:21;;;;;;;15.98;2.58;;;;;;;;;;4973262;28;20019;-76
2022/11/24 05:52:48;;;;;;;13.00;3.38;;;;;;;;;;4973681;28;20528;-76
2022/11/24 05:55:14;;;;;;;12.82;2.25;;;;;;;;;;4973590;28;20034;-76
2022/11/24 05:57:40;;;;;;;16.23;2.72;;;;;;;;;;4973286;28;20030;-76
2022/11/24 06:00:07;;;;;;;12.43;2.22;;;;;;;;;;4956658;28;20023;-78
2022/11/24 06:02:33;;;;;;;11.57;2.20;;;;;;;;;;4974245;28;20027;-78
2022/11/24 06:04:59;;;;;;;15.88;2.30;;;;;;;;;;4973211;28;20049;-78
2022/11/24 06:07:25;;;;;;;12.73;2.28;;;;;;;;;;4975595;28;20058;-77
2022/11/24 06:09:51;;;;;;;13.10;2.40;;;;;;;;;;4978040;28;20063;-78
2022/11/24 06:12:17;;;;;;;8.73;1.98;;;;;;;;;;4978033;28;20110;-77
2022/11/24 06:14:43;;;;;;;13.30;2.38;;;;;;;;;;4977390;28;20062;-77
2022/11/24 06:17:10;;;;;;;10.23;2.90;;;;;;;;;;4977697;28;20026;-77
2022/11/24 06:19:36;;;;;;;10.98;2.28;;;;;;;;;;4977313;28;20639;-77
2022/11/24 06:22:02;;;;;;;9.73;1.88;;;;;;;;;;4977246;28;20027;-77
2022/11/24 06:24:28;;;;;;;16.42;2.13;;;;;;;;;;4988940;28;20035;-77
2022/11/24 06:26:54;;;;;;;6.75;2.42;;;;;;;;;;4995677;28;20026;-77
2022/11/24 06:29:20;;;;;;;52.78;4.47;;;;;;;;;;4977348;28;20046;-77
2022/11/24 06:31:46;;;;;;;9.93;2.10;;;;;;;;;;4977335;28;20027;-77
2022/11/24 06:34:12;;;;;;;14.93;2.25;;;;;;;;;;4977693;28;20085;-77
2022/11/24 06:36:39;;;;;;;13.82;2.00;;;;;;;;;;4978693;28;20081;-77
2022/11/24 06:39:05;;;;;;;11.20;2.13;;;;;;;;;;4996807;28;20465;-78
2022/11/24 06:41:31;;;;;;;7.18;1.90;;;;;;;;;;4996659;28;20030;-77
2022/11/24 06:43:57;;;;;;;13.50;2.20;;;;;;;;;;4996874;28;20023;-77
2022/11/24 06:46:24;;;;;;;7.75;2.03;;;;;;;;;;4996501;28;20046;-77
2022/11/24 06:48:52;;;;;;;13.15;2.00;;;;;;;;;;4996958;28;20033;-78
2022/11/24 06:51:19;;;;;;;12.43;2.50;;;;;;;;;;4996690;28;20066;-78
2022/11/24 06:53:45;;;;;;;10.75;1.95;;;;;;;;;;4996832;28;20048;-77
2022/11/24 06:56:12;;;;;;;9.40;2.28;;;;;;;;;;4996518;28;20027;-77
2022/11/24 06:58:42;;;;;;;12.13;1.83;;;;;;;;;;4995940;28;20364;-77
2022/11/24 07:01:08;;;;;;;8.18;1.40;;;;;;;;;;4996270;28;20022;-77
2022/11/24 07:03:34;;;;;;;5.70;2.20;;;;;;;;;;4996480;28;20033;-77
2022/11/24 07:06:00;;;;;;;15.13;1.90;;;;;;;;;;4996349;28;20030;-77
2022/11/24 07:08:26;;;;;;;12.95;1.80;;;;;;;;;;4995802;28;20031;-77
2022/11/24 07:10:52;;;;;;;12.00;2.35;;;;;;;;;;4983574;28;20031;-77
2022/11/24 07:13:19;;;;;;;6.50;1.80;;;;;;;;;;4971704;28;20033;-77
2022/11/24 07:15:45;;;;;;;5.10;1.50;;;;;;;;;;4976549;28;20182;-77
2022/11/24 07:18:11;;;;;;;14.98;2.08;;;;;;;;;;4994163;28;20065;-77
2022/11/24 07:20:37;;;;;;;9.98;1.88;;;;;;;;;;4978535;28;20054;-77
2022/11/24 07:23:03;;;;;;;8.45;1.75;;;;;;;;;;4995631;28;20370;-77
2022/11/24 07:25:29;;;;;;;5.10;1.45;;;;;;;;;;4983437;28;20054;-77
2022/11/24 07:27:59;;;;;;;10.90;1.90;;;;;;;;;;4976502;28;20050;-77
2022/11/24 07:30:26;;;;;;;8.87;1.80;;;;;;;;;;4984867;28;20031;-77
2022/11/24 07:32:52;;;;;;;11.60;1.80;;;;;;;;;;4991712;28;20267;-77
2022/11/24 07:35:17;;;;;;;8.32;1.92;;;;;;;;;;4998013;28;20109;-77
2022/11/24 07:37:44;;;;;;;7.07;1.75;;;;;;;;;;4988910;28;20035;-78
2022/11/24 07:40:10;;;;;;;8.88;1.85;;;;;;;;;;4980066;28;20033;-77
2022/11/24 07:42:36;;;;;;;10.73;1.83;;;;;;;;;;4992693;28;20630;-77
2022/11/24 07:45:02;;;;;;;9.77;1.77;;;;;;;;;;4977346;28;20030;-77
2022/11/24 07:47:28;;;;;;;13.43;1.95;;;;;;;;;;4979231;28;20051;-77
2022/11/24 07:49:54;;;;;;;8.18;1.90;;;;;;;;;;4996467;28;20053;-78
2022/11/24 07:52:20;;;;;;;12.20;1.98;;;;;;;;;;4990438;28;20029;-77
2022/11/24 07:54:46;;;;;;;11.85;2.45;;;;;;;;;;4994775;28;20100;-77
2022/11/24 07:57:12;;;;;;;10.27;2.40;;;;;;;;;;4994597;28;20105;-77
2022/11/24 07:59:38;;;;;;;9.18;2.20;;;;;;;;;;4994707;28;20023;-77
2022/11/24 08:02:04;;;;;;;4.32;2.53;;;;;;;;;;4966042;28;20027;-77
2022/11/24 08:04:30;;;;;;;14.13;2.38;;;;;;;;;;4975373;28;20497;-77
2022/11/24 08:06:55;;;;;;;11.30;2.60;;;;;;;;;;4975200;28;20023;-77
2022/11/24 08:09:21;;;;;;;7.88;1.98;;;;;;;;;;4975234;28;20027;-77
2022/11/24 08:11:47;;;;;;;8.43;1.83;;;;;;;;;;4994618;28;20023;-78
2022/11/24 08:14:13;;;;;;;7.63;1.60;;;;;;;;;;4986964;28;20393;-77
2022/11/24 08:16:39;;;;;;;9.00;1.50;;;;;;;;;;4992894;28;20034;-77
2022/11/24 08:19:05;;;;;;;6.80;1.65;;;;;;;;;;4993422;28;20026;-77
2022/11/24 08:21:33;;;;;;;5.57;1.52;;;;;;;;;;4994902;28;20529;-78
2022/11/24 08:23:59;;;;;;;9.88;2.45;;;;;;;;;;4989712;28;20045;-77
2022/11/24 08:26:26;;;;;;;9.85;1.85;;;;;;;;;;5012005;28;20026;-77
2022/11/24 08:28:56;;;;;;;11.65;2.60;;;;;;;;;;4999997;28;20034;-78
2022/11/24 08:31:22;;;;;;;;;;;;;;;;;;4995927;28;20027;-78
2022/11/24 08:33:48;;;;;;;4.97;2.72;;;;;;;;;;4978146;28;19910;-78
2022/11/24 08:36:15;;;;;;;4.60;1.40;;;;;;;;;;4975886;28;20034;-78
2022/11/24 08:38:41;;;;;;;8.05;2.30;;;;;;;;;;4975636;28;20027;-77
2022/11/24 08:41:09;;;;;;;9.50;1.92;;;;;;;;;;4976989;28;20077;-77
2022/11/24 08:43:35;;;;;;;9.85;2.22;;;;;;;;;;4989520;28;20030;-77
2022/11/24 08:46:20;;;;;;;6.72;1.60;;;;;;;;;;4978597;28;20062;-77
2022/11/24 08:48:50;;;;;;;7.65;1.40;;;;;;;;;;4979899;28;20046;-77
2022/11/24 08:51:17;;;;;;;6.13;1.30;;;;;;;;;;4995104;28;20097;-77
2022/11/24 08:53:43;;;;;;;10.63;1.40;;;;;;;;;;4994917;28;20109;-77
2022/11/24 08:56:10;;;;;;;6.57;1.45;;;;;;;;;;4988846;28;20438;-77
2022/11/24 08:58:36;;;;;;;5.00;1.30;;;;;;;;;;4981121;28;20027;-77
2022/11/24 09:01:10;;;;;;;6.57;1.27;;;;;;;;;;4994494;28;20034;-78
2022/11/24 09:03:39;;;;;;;9.15;1.20;;;;;;;;;;4975268;28;20066;-77
2022/11/24 09:06:06;;;;;;;4.10;1.00;;;;;;;;;;4975203;28;20839;-77
2022/11/24 09:08:32;;;;;;;3.95;0.93;;;;;;;;;;4974662;28;20492;-77
2022/11/24 09:11:01;;;;;;;5.10;0.90;;;;;;;;;;4975246;28;20123;-77
2022/11/24 09:13:28;;;;;;;4.00;0.80;;;;;;;;;;4978919;28;20072;-77
2022/11/24 09:15:54;;;;;;;4.65;0.73;;;;;;;;;;4994852;28;20038;-78
2022/11/24 09:18:20;;;;;;;3.97;0.98;;;;;;;;;;4994639;28;20034;-77
2022/11/24 09:20:46;;;;;;;6.75;0.88;;;;;;;;;;4994673;28;20030;-77
2022/11/24 09:23:12;;;;;;;7.72;1.33;;;;;;;;;;4994965;28;20022;-77
2022/11/24 09:25:38;;;;;;;6.13;1.10;;;;;;;;;;4994789;28;20030;-77
2022/11/24 09:28:04;;;;;;;5.35;1.70;;;;;;;;;;4994042;28;20519;-77
2022/11/24 09:30:30;;;;;;;4.65;1.30;;;;;;;;;;4996566;28;20022;-77
2022/11/24 09:32:56;;;;;;;9.18;1.88;;;;;;;;;;5014107;28;20028;-78
2022/11/24 09:35:23;;;;;;;6.28;1.50;;;;;;;;;;4994670;28;20461;-78
2022/11/24 09:37:50;;;;;;;8.27;1.65;;;;;;;;;;4994515;28;20085;-77
2022/11/24 09:40:16;;;;;;;9.15;2.67;;;;;;;;;;4975246;28;20027;-78
2022/11/24 09:42:57;;;;;;;11.70;2.10;;;;;;;;;;4974518;28;20029;-77
2022/11/24 09:45:36;;;;;;;7.38;2.13;;;;;;;;;;4974645;28;20033;-77
2022/11/24 09:48:11;;;;;;;9.38;2.00;;;;;;;;;;4974919;28;20047;-77
2022/11/24 09:50:37;;;;;;;7.43;2.03;;;;;;;;;;4975188;28;20031;-77
2022/11/24 09:53:09;;;;;;;6.55;1.88;;;;;;;;;;4974976;28;20042;-77
2022/11/24 09:55:45;;;;;;;5.25;2.20;;;;;;;;;;4974591;28;20070;-77
2022/11/24 09:58:23;;;;;;;4.15;2.00;;;;;;;;;;4974886;28;20483;-77
2022/11/24 10:00:51;;;;;;;4.40;1.75;;;;;;;;;;4957137;28;20042;-77
2022/11/24 10:03:24;;;;;;;9.75;1.88;;;;;;;;;;4993805;28;20026;-77
2022/11/24 10:05:51;;;;;;;5.03;2.22;;;;;;;;;;4993881;28;20022;-77
2022/11/24 10:08:31;;;;;;;12.15;2.63;;;;;;;;;;4994065;28;20061;-77
2022/11/24 10:10:59;;;;;;;8.40;2.83;;;;;;;;;;4988194;28;20058;-77
2022/11/24 10:13:40;;;;;;;4.15;2.75;;;0.10;98.40;;;;;;4974456;28;20027;-77
2022/11/24 10:16:21;;;;;;;;;;;9.20;99.90;;;;;;4974751;28;20054;-77
2022/11/24 10:18:53;;;;;;;5.20;2.47;;;9.00;99.90;;;;;;4985624;28;19926;-77
2022/11/24 10:21:41;;;;;;;7.57;2.63;;;9.00;99.90;;;;;;4993652;28;20024;-77
2022/11/24 10:24:27;;;;;;;5.50;2.72;;;9.00;99.90;;;;;;4993908;28;20103;-77
2022/11/24 10:27:17;;;;;;;8.95;3.20;;;8.90;99.90;;;;;;4993709;28;20081;-77
2022/11/24 10:29:46;;;;;;;9.07;3.75;;;9.00;99.90;;;;;;4993965;28;20105;-77
2022/11/24 10:32:24;;;;;;;9.15;3.42;;;9.00;99.90;;;;;;4993668;28;20030;-77
2022/11/24 10:34:50;;;;;;;10.05;3.25;;;9.00;99.90;;;;;;5011320;28;20022;-77
2022/11/24 10:37:38;;;;;;;7.40;3.50;;;8.90;99.90;;;;;;5013237;28;20030;-77
2022/11/24 10:40:10;;;;;;;9.88;3.38;;;8.90;99.90;;;;;;4974471;28;20085;-77
2022/11/24 10:42:36;;;;;;;11.55;3.70;;;8.90;99.90;;;;;;4974441;28;20027;-77
2022/11/24 10:45:11;;;;;;;7.88;3.30;;;8.90;99.90;;;;;;4974236;28;20389;-77
2022/11/24 10:47:37;;;;;;;7.22;3.67;;;8.90;99.90;;;;;;4973873;28;20055;-77
2022/11/24 10:50:34;;;;;;;8.70;3.42;;;9.00;99.90;;;;;;4974143;28;20022;-77
2022/11/24 10:53:03;;;;;;;10.07;3.13;;;9.00;99.90;;;;;;4976424;28;20031;-77
2022/11/24 10:55:53;;;;;;;8.48;3.15;;;9.00;99.90;;;;;;4996542;28;20062;-77
2022/11/24 10:58:33;;;;;;;13.93;4.20;;;9.10;99.90;;;;;;4987094;28;20026;-77
2022/11/24 11:01:12;;;;;;;5.70;3.47;;;9.10;99.90;;;;;;4995352;28;20061;-76
2022/11/24 11:03:54;;;;;;;12.23;3.63;;;9.10;99.90;;;;;;4984072;28;20113;-77
2022/11/24 11:06:21;;;;;;;8.02;3.58;;;9.10;99.90;;;;;;4996872;28;20030;-77
2022/11/24 11:08:46;;;;;;;11.35;4.15;;;9.20;99.90;;;;;;4996965;28;20157;-77
2022/11/24 11:11:28;;;;;;;12.00;4.30;;;9.20;99.90;;;;;;4996722;28;20477;-77
2022/11/24 11:13:56;;;;;;;10.40;3.35;;;9.20;99.90;;;;;;4992672;28;20037;-77
2022/11/24 11:16:49;;;;;;;10.85;4.22;;;9.30;99.90;;;;;;4977094;28;20034;-77
2022/11/24 11:19:32;;;;;;;11.63;4.30;;;9.30;99.90;;;;;;4978437;28;20373;-77
2022/11/24 11:22:00;;;;;;;10.35;3.75;;;9.30;99.90;;;;;;4996592;28;20019;-77
2022/11/24 11:24:27;;;;;;;7.88;3.35;;;9.30;99.90;;;;;;4983916;28;20035;-76
2022/11/24 11:27:15;;;;;;;9.98;3.20;;;9.30;99.90;;;;;;4977102;28;20023;-77
2022/11/24 11:29:40;;;;;;;11.18;3.78;;;9.30;99.90;;;;;;4977080;28;20023;-77
2022/11/24 11:32:26;;;;;;;11.63;3.78;;;9.30;99.90;;;;;;4982257;28;20355;-77
2022/11/24 11:34:56;;;;;;;9.80;3.35;;;9.30;99.90;;;;;;4996339;28;20030;-77
2022/11/24 11:37:27;;;;;;;14.63;4.00;;;9.30;99.90;;;;;;4983174;28;20105;-77
2022/11/24 11:39:54;;;;;;;11.55;3.17;;;9.30;99.90;;;;;;4996483;28;20042;-77
2022/11/24 11:42:41;;;;;;;8.65;3.40;;;9.30;99.90;;;;;;4996347;28;20461;-77
2022/11/24 11:45:25;;;;;;;10.68;2.90;;;9.30;99.90;;;;;;4987028;28;20489;-76
2022/11/24 11:47:57;;;;;;;11.40;3.30;;;9.30;99.90;;;;;;4989266;28;20053;-77
2022/11/24 11:50:53;;;;;;;14.30;3.45;;;9.40;99.90;;;;;;4976853;28;20019;-77
2022/11/24 11:53:22;;;;;;;9.07;3.22;;;9.40;99.90;;;;;;4986727;28;20030;-77
2022/11/24 11:56:08;;;;;;;15.68;3.53;;;9.50;99.90;;;;;;4985058;28;20089;-77
2022/11/24 11:59:11;;;;;;;7.65;3.47;;;9.50;99.90;;;;;;4983600;28;20122;-77
2022/11/24 12:02:11;;;;;;;18.02;4.60;;;9.60;99.90;;;;;;4995812;28;20035;-77
2022/11/24 12:04:42;;;;;;;15.95;3.50;;;9.70;99.90;;;;;;5000765;28;20045;-77
2022/11/24 12:07:32;;;;;;;12.68;3.80;;;9.70;99.90;;;;;;5002378;28;20018;-77
2022/11/24 12:10:01;;;;;;;10.25;3.60;;;9.70;99.90;;;;;;4976402;28;20027;-76
2022/11/24 12:12:42;;;;;;;9.77;3.58;;;9.90;99.90;;;;;;4976075;28;20469;-77
2022/11/24 12:15:17;;;;;;;14.18;3.63;;;9.90;99.90;;;;;;4958838;28;20027;-77
2022/11/24 12:17:53;;;;;;;14.68;3.25;;;9.90;99.90;;;;;;4975755;28;20666;-77
2022/11/24 12:20:40;;;;;;;10.15;3.63;;;9.90;99.90;;;;;;4980633;28;20030;-77
2022/11/24 12:23:40;;;;;;;12.27;4.22;;;9.90;99.90;;;;;;4995397;28;20019;-77
2022/11/24 12:26:13;;;;;;;12.80;3.30;;;9.90;99.90;;;;;;4995413;28;20498;-77
2022/11/24 12:28:55;;;;;;;10.85;3.00;;;10.00;99.90;;;;;;4995039;28;20271;-77
2022/11/24 12:31:29;;;;;;;11.10;3.17;;;10.00;99.90;;;;;;4995310;28;20023;-77
2022/11/24 12:34:17;;;;;;;13.52;3.30;;;10.00;99.90;;;;;;4979798;28;20086;-77
2022/11/24 12:37:21;;;;;;;10.50;3.00;;;10.10;99.90;;;;;;4995510;28;20045;-77
2022/11/24 12:40:03;;;;;;;13.65;3.33;;;10.10;99.90;;;;;;4966243;28;20461;-77
2022/11/24 12:42:42;;;;;;;13.13;2.80;;;10.10;99.90;;;;;;4995602;28;20105;-78
2022/11/24 12:45:08;;;;;;;10.55;2.78;;;10.30;99.90;;;;;;4996428;28;20029;-78
2022/11/24 12:47:48;;;;;;;13.18;2.50;;;10.10;99.90;;;;;;4996727;28;20121;-78
2022/11/24 12:50:18;;;;;;;10.25;2.75;;;10.10;99.90;;;;;;5000031;28;20026;-78
2022/11/24 12:52:52;;;;;;;10.60;2.28;;;10.20;99.90;;;;;;4980099;28;20078;-78
2022/11/24 12:55:21;;;;;;;8.57;2.22;;;10.10;99.90;;;;;;5005518;28;20022;-77
2022/11/24 12:57:56;;;;;;;10.43;2.78;;;10.10;99.90;;;;;;4994649;28;20118;-77
2022/11/24 13:00:30;;;;;;;11.27;2.58;;;10.00;99.90;;;;;;4989196;28;20033;-77
2022/11/24 13:03:31;;;;;;;10.05;2.30;;;9.90;99.90;;;;;;4995668;28;20034;-78
2022/11/24 13:06:09;;;;;;;9.60;2.60;;;9.80;99.90;;;;;;4995557;28;20026;-78
2022/11/24 13:08:36;;;;;;;10.77;2.20;;;10.00;99.90;;;;;;4984824;28;20034;-78
2022/11/24 13:11:20;;;;;;;8.82;2.47;;;10.00;99.90;;;;;;4985755;28;20359;-78
2022/11/24 13:14:22;;;;;;;9.00;2.25;;;9.80;99.90;;;;;;4993721;28;20027;-78
2022/11/24 13:16:53;;;;;;;13.32;2.10;;;9.80;99.90;;;;;;4984863;28;20043;-77
2022/11/24 13:19:22;;;;;;;11.50;2.47;;;9.80;99.90;;;;;;4981104;28;20073;-78
2022/11/24 13:21:58;;;;;;;10.25;1.83;;;9.70;99.90;;;;;;4986168;28;20119;-78
2022/11/24 13:24:29;;;;;;;10.07;2.25;;;9.60;99.90;;;;;;4983248;28;20029;-77
2022/11/24 13:27:16;;;;;;;8.02;1.88;;;9.60;99.90;;;;;;4985751;28;20031;-77
2022/11/24 13:29:42;;;;;;;12.32;2.20;;;9.50;99.90;;;;;;4985186;28;20018;-78
2022/11/24 13:32:07;;;;;;;10.60;1.92;;;9.40;99.90;;;;;;4981097;28;20089;-78
2022/11/24 13:34:42;;;;;;;9.90;2.35;;;9.30;99.90;;;;;;4977873;28;21572;-78
2022/11/24 13:37:21;;;;;;;10.10;1.83;;;9.20;99.90;;;;;;4977463;28;20055;-78
2022/11/24 13:39:51;;;;;;;14.25;1.92;;;9.20;99.90;;;;;;4975089;28;20500;-78
2022/11/24 13:42:18;;;;;;;9.98;1.98;;;9.10;99.90;;;;;;4994333;28;20030;-78
2022/11/24 13:44:48;;;;;;;17.40;2.15;;;9.10;99.90;;;;;;4994282;28;20053;-78
2022/11/24 13:47:34;;;;;;;17.67;2.30;;;9.10;99.90;;;;;;4994397;28;20093;-78
2022/11/24 13:50:03;;;;;;;10.25;1.70;;;9.70;99.90;;;;;;4974855;28;20038;-77
2022/11/24 13:52:38;;;;;;;14.80;2.05;;;10.00;99.90;;;;;;4989265;28;20463;-78
2022/11/24 13:55:20;;;;;;;11.20;2.28;;;10.20;99.90;;;;;;4995186;28;20026;-77
2022/11/24 13:57:57;;;;;;;16.45;2.45;;;9.90;99.90;;;;;;4958082;28;20023;-77
2022/11/24 14:00:23;;;;;;;9.35;2.25;;;9.70;99.90;;;;;;4988976;28;20022;-77
2022/11/24 14:03:03;;;;;;;9.30;1.58;;;9.50;99.90;;;;;;4990102;28;20025;-78
2022/11/24 14:05:35;;;;;;;10.20;2.55;;;9.30;99.90;;;;;;4994776;28;20023;-77
2022/11/24 14:08:03;;;;;;;9.25;2.20;;;9.30;99.90;;;;;;4983802;28;20026;-78
2022/11/24 14:10:40;;;;;;;12.38;2.30;;;9.20;99.90;;;;;;4977788;28;20026;-78
2022/11/24 14:13:35;;;;;;;11.77;2.00;;;9.10;99.90;;;;;;4984501;28;20030;-79
2022/11/24 14:16:02;;;;;;;11.63;2.40;;;9.00;99.90;;;;;;4965672;28;20050;-78
2022/11/24 14:18:28;;;;;;;11.10;2.28;;;9.00;99.90;;;;;;4986836;28;20378;-78